Time;durP1;ratioP1;P1;durP2;ratioP2;P2;SDS_P1;SDS_P2;PMS_P1;PMS_P2;Temp;Humidity;BMP_temperature;BMP_pressure;BME280_temperature;BME280_humidity;BME280_pressure;Samples;Min_cycle;Max_cycle;Signal;HPM_P1;HPM_P2
2022/01/17 00:00:12;;;;;;;24.03;6.37;;;;;;;;;;4741106;30;20521;-74
2022/01/17 00:02:39;;;;;;;26.10;7.53;;;;;;;;;;4745163;30;20060;-75
2022/01/17 00:05:06;;;;;;;35.25;8.93;;;;;;;;;;4741822;30;20055;-76
2022/01/17 00:07:33;;;;;;;23.85;6.53;;;;;;;;;;4748464;30;20063;-76
2022/01/17 00:09:58;;;;;;;17.70;6.15;;;;;;;;;;4738342;30;20037;-76
2022/01/17 00:12:24;;;;;;;18.03;6.93;;;;;;;;;;4737151;30;20107;-76
2022/01/17 00:14:49;;;;;;;23.10;5.53;;;;;;;;;;4748871;30;20040;-74
2022/01/17 00:19:44;;;;;;;19.53;7.00;;;;;;;;;;4742126;30;20068;-76
2022/01/17 00:22:11;;;;;;;15.90;5.60;;;;;;;;;;4743219;30;20039;-76
2022/01/17 00:24:36;;;;;;;26.02;6.30;;;;;;;;;;4737179;30;20138;-76
2022/01/17 00:27:02;;;;;;;17.50;6.43;;;;;;;;;;4745287;30;20084;-76
2022/01/17 00:29:28;;;;;;;17.93;6.13;;;;;;;;;;4742205;30;20118;-76
2022/01/17 00:31:53;;;;;;;14.83;5.37;;;;;;;;;;4740762;30;20116;-76
2022/01/17 00:34:19;;;;;;;24.93;7.17;;;;;;;;;;4737844;30;20052;-76
2022/01/17 00:36:44;;;;;;;22.07;6.33;;;;;;;;;;4748970;30;20090;-76
2022/01/17 00:39:10;;;;;;;17.23;5.70;;;;;;;;;;4743033;30;20041;-76
2022/01/17 00:41:35;;;;;;;18.90;5.27;;;;;;;;;;4745521;30;20052;-76
2022/01/17 00:44:01;;;;;;;21.70;5.33;;;;;;;;;;4737750;30;20505;-76
2022/01/17 00:46:26;;;;;;;19.52;5.05;;;;;;;;;;4752952;30;20102;-76
2022/01/17 00:48:52;;;;;;;19.20;5.07;;;;;;;;;;4750150;30;20037;-75
2022/01/17 00:51:18;;;;;;;15.83;5.23;;;;;;;;;;4754878;30;20131;-75
2022/01/17 00:53:43;;;;;;;21.50;6.18;;;;;;;;;;4752739;30;20036;-75
2022/01/17 00:56:09;;;;;;;22.23;5.37;;;;;;;;;;4747872;30;20054;-75
2022/01/17 00:58:34;;;;;;;18.77;6.03;;;;;;;;;;4736291;30;20032;-74
2022/01/17 01:01:00;;;;;;;20.53;5.80;;;;;;;;;;4745371;30;20071;-75
2022/01/17 01:03:26;;;;;;;26.50;6.20;;;;;;;;;;4749105;30;20102;-75
2022/01/17 01:05:52;;;;;;;24.02;5.88;;;;;;;;;;4749352;30;20043;-75
2022/01/17 01:08:17;;;;;;;20.70;6.47;;;;;;;;;;4746721;30;20126;-75
2022/01/17 01:10:43;;;;;;;23.70;7.30;;;;;;;;;;4754389;30;20079;-75
2022/01/17 01:13:09;;;;;;;26.57;6.20;;;;;;;;;;4750764;30;20040;-75
2022/01/17 01:29:15;;;;;;;18.88;6.20;;;;;;;;;;4730223;30;20052;-75
2022/01/17 01:31:49;;;;;;;15.27;6.03;;;;;;;;;;4747974;30;20052;-77
2022/01/17 01:34:15;;;;;;;22.90;6.93;;;;;;;;;;4747005;30;20098;-77
2022/01/17 01:36:41;;;;;;;21.58;6.63;;;;;;;;;;4744948;30;20372;-77
2022/01/17 01:39:07;;;;;;;24.02;5.63;;;;;;;;;;4750645;30;20082;-77
2022/01/17 01:41:40;;;;;;;18.15;4.88;;;;;;;;;;4742869;30;20057;-77
2022/01/17 01:44:13;;;;;;;23.73;5.38;;;;;;;;;;4740075;30;20113;-75
2022/01/17 01:46:40;;;;;;;27.02;5.38;;;;;;;;;;4740764;30;20048;-75
2022/01/17 01:49:05;;;;;;;18.42;5.20;;;;;;;;;;4740799;30;20043;-75
2022/01/17 01:51:31;;;;;;;20.03;4.47;;;;;;;;;;4745806;30;20048;-75
2022/01/17 01:53:56;;;;;;;27.10;6.40;;;;;;;;;;4751153;30;20479;-75
2022/01/17 01:56:21;;;;;;;12.83;4.83;;;;;;;;;;4746574;30;20100;-75
2022/01/17 01:58:47;;;;;;;20.30;4.47;;;;;;;;;;4745040;30;20040;-75
2022/01/17 02:01:12;;;;;;;12.20;4.60;;;;;;;;;;4736977;30;20478;-77
2022/01/17 02:03:38;;;;;;;12.03;4.87;;;;;;;;;;4739907;30;20112;-77
2022/01/17 02:06:03;;;;;;;16.03;4.87;;;;;;;;;;4740979;30;20397;-77
2022/01/17 02:08:30;;;;;;;20.47;5.77;;;;;;;;;;4737628;30;20474;-77
2022/01/17 02:10:56;;;;;;;13.07;4.00;;;;;;;;;;4740069;30;20043;-77
2022/01/17 02:13:21;;;;;;;13.50;3.70;;;;;;;;;;4741821;30;20114;-74
2022/01/17 02:15:48;;;;;;;11.20;4.17;;;;;;;;;;4745947;30;20482;-74
2022/01/17 02:18:22;;;;;;;21.70;5.28;;;;;;;;;;4744129;30;20371;-74
2022/01/17 02:21:09;;;;;;;19.58;4.57;;;;;;;;;;4743567;30;20093;-74
2022/01/17 02:23:32;;;;;;;15.80;4.13;;;;;;;;;;4741139;30;20135;-74
2022/01/17 02:25:58;;;;;;;18.23;5.37;;;;;;;;;;4744684;30;20546;-74
2022/01/17 02:28:23;;;;;;;14.57;3.67;;;;;;;;;;4744511;30;20074;-74
2022/01/17 02:30:49;;;;;;;16.33;3.33;;;;;;;;;;4740220;30;20051;-74
2022/01/17 02:33:14;;;;;;;14.90;4.07;;;;;;;;;;4742767;30;20509;-74
2022/01/17 02:35:39;;;;;;;15.23;4.70;;;;;;;;;;4744934;30;20127;-74
2022/01/17 02:38:05;;;;;;;16.73;3.87;;;;;;;;;;4748414;30;20504;-74
2022/01/17 02:40:30;;;;;;;13.33;5.17;;;;;;;;;;4747290;30;20041;-74
2022/01/17 02:43:02;;;;;;;11.73;3.73;;;;;;;;;;4745319;30;20047;-74
2022/01/17 02:48:04;;;;;;;15.23;4.57;;;;;;;;;;4746512;30;20135;-74
2022/01/17 02:50:30;;;;;;;8.43;3.05;;;;;;;;;;4746521;30;20044;-74
2022/01/17 02:53:05;;;;;;;10.97;3.60;;;;;;;;;;4751274;30;20040;-74
2022/01/17 02:55:31;;;;;;;21.20;4.32;;;;;;;;;;4742303;30;20191;-74
2022/01/17 02:57:57;;;;;;;8.63;2.87;;;;;;;;;;4735917;30;20135;-74
2022/01/17 03:00:23;;;;;;;12.23;3.30;;;;;;;;;;4734185;30;20032;-74
2022/01/17 03:02:49;;;;;;;10.53;3.40;;;;;;;;;;4742821;30;20095;-73
2022/01/17 03:05:19;;;;;;;9.77;4.00;;;;;;;;;;4747424;30;20413;-73
2022/01/17 03:07:44;;;;;;;12.02;2.78;;;;;;;;;;4745345;30;20375;-74
2022/01/17 03:10:19;;;;;;;14.93;3.80;;;;;;;;;;4747521;30;20051;-74
2022/01/17 03:12:45;;;;;;;11.82;3.53;;;;;;;;;;4736705;30;20099;-74
2022/01/17 03:15:12;;;;;;;18.57;3.40;;;;;;;;;;4743166;30;20658;-74
2022/01/17 03:17:38;;;;;;;10.27;3.25;;;;;;;;;;4751072;30;20121;-74
2022/01/17 03:20:04;;;;;;;15.37;3.67;;;;;;;;;;4746649;30;20095;-74
2022/01/17 03:22:29;;;;;;;11.80;3.10;;;;;;;;;;4737967;30;20049;-74
2022/01/17 03:24:54;;;;;;;11.57;3.63;;;;;;;;;;4744758;30;20044;-73
2022/01/17 03:27:20;;;;;;;9.43;2.80;;;;;;;;;;4738485;30;20087;-74
2022/01/17 03:29:45;;;;;;;15.60;3.97;;;;;;;;;;4740437;30;20044;-74
2022/01/17 03:32:11;;;;;;;12.03;3.00;;;;;;;;;;4737737;30;20494;-73
2022/01/17 03:34:38;;;;;;;10.47;3.30;;;;;;;;;;4737428;30;20372;-73
2022/01/17 03:37:03;;;;;;;11.23;3.15;;;;;;;;;;4736335;30;20078;-73
2022/01/17 03:39:29;;;;;;;17.27;3.63;;;;;;;;;;4750361;30;20526;-73
2022/01/17 03:41:54;;;;;;;18.20;3.20;;;;;;;;;;4740591;30;20033;-73
2022/01/17 03:44:19;;;;;;;14.90;4.20;;;;;;;;;;4750258;30;20075;-73
2022/01/17 03:46:45;;;;;;;19.30;3.63;;;;;;;;;;4747671;30;20099;-73
2022/01/17 03:49:10;;;;;;;13.43;3.43;;;;;;;;;;4742550;30;20037;-73
2022/01/17 03:51:36;;;;;;;13.73;4.10;;;;;;;;;;4738165;30;20102;-73
2022/01/17 03:54:01;;;;;;;13.37;3.27;;;;;;;;;;4742983;30;20098;-73
2022/01/17 03:56:26;;;;;;;14.17;3.67;;;;;;;;;;4744237;30;20115;-73
2022/01/17 03:58:52;;;;;;;10.93;2.57;;;;;;;;;;4747659;30;20057;-74
2022/01/17 04:01:19;;;;;;;15.27;4.87;;;;;;;;;;4735952;30;20186;-73
2022/01/17 04:03:46;;;;;;;32.92;4.25;;;;;;;;;;4744624;30;20036;-74
2022/01/17 04:06:14;;;;;;;17.77;2.92;;;;;;;;;;4746126;30;20071;-73
2022/01/17 04:08:41;;;;;;;11.65;2.88;;;;;;;;;;4738135;30;20044;-73
2022/01/17 04:11:06;;;;;;;14.90;3.38;;;;;;;;;;4733494;30;20371;-73
2022/01/17 04:13:33;;;;;;;19.80;4.77;;;;;;;;;;4743014;30;20051;-73
2022/01/17 04:15:58;;;;;;;12.88;2.97;;;;;;;;;;4746920;30;20059;-73
2022/01/17 04:18:24;;;;;;;8.97;2.87;;;;;;;;;;4750422;30;20048;-73
2022/01/17 04:20:50;;;;;;;11.77;3.92;;;;;;;;;;4750329;30;20044;-73
2022/01/17 04:23:17;;;;;;;18.77;3.15;;;;;;;;;;4745663;30;20040;-73
2022/01/17 04:25:43;;;;;;;14.45;2.75;;;;;;;;;;4747404;30;20040;-73
2022/01/17 04:28:10;;;;;;;9.10;2.80;;;;;;;;;;4733708;30;20052;-73
2022/01/17 04:30:35;;;;;;;;;;;;;;;;;;4733983;30;20062;-73
2022/01/17 04:33:01;;;;;;;15.85;2.88;;;;;;;;;;4744060;30;19922;-73
2022/01/17 04:35:28;;;;;;;9.50;3.37;;;;;;;;;;4742998;30;20490;-73
2022/01/17 04:37:56;;;;;;;15.93;3.50;;;;;;;;;;4734454;30;20052;-73
2022/01/17 04:40:22;;;;;;;9.07;2.63;;;;;;;;;;4734883;30;20063;-73
2022/01/17 04:42:48;;;;;;;10.50;2.90;;;;;;;;;;4733263;30;20041;-73
2022/01/17 04:45:16;;;;;;;10.57;3.20;;;;;;;;;;4742240;30;20051;-74
2022/01/17 04:47:45;;;;;;;15.25;2.42;;;;;;;;;;4747279;30;20098;-73
2022/01/17 04:50:14;;;;;;;11.65;3.22;;;;;;;;;;4743622;30;20059;-73
2022/01/17 04:52:40;;;;;;;7.35;2.40;;;;;;;;;;4736251;30;20392;-73
2022/01/17 04:55:09;;;;;;;16.47;3.10;;;;;;;;;;4750891;30;20106;-73
2022/01/17 04:57:35;;;;;;;9.43;2.97;;;;;;;;;;4749968;30;20052;-73
2022/01/17 05:00:00;;;;;;;17.93;3.27;;;;;;;;;;4740603;30;20434;-73
2022/01/17 05:02:26;;;;;;;12.00;3.23;;;;;;;;;;4735996;30;20296;-74
2022/01/17 05:04:51;;;;;;;21.57;3.00;;;;;;;;;;4735665;30;20044;-73
2022/01/17 05:07:17;;;;;;;13.77;2.63;;;;;;;;;;4749090;30;20403;-73
2022/01/17 05:09:43;;;;;;;11.60;3.40;;;;;;;;;;4747002;30;20044;-73
2022/01/17 05:12:10;;;;;;;13.43;2.58;;;;;;;;;;4749036;30;20048;-74
2022/01/17 05:14:35;;;;;;;10.65;3.63;;;;;;;;;;4737957;30;20056;-73
2022/01/17 05:17:10;;;;;;;14.77;3.07;;;;;;;;;;4743311;30;20052;-73
2022/01/17 05:19:48;;;;;;;9.05;3.13;;;;;;;;;;4737098;30;20044;-73
2022/01/17 05:22:18;;;;;;;13.07;2.88;;;;;;;;;;4743341;30;20462;-73
2022/01/17 05:24:44;;;;;;;20.08;3.50;;;;;;;;;;4736009;30;20074;-73
2022/01/17 05:27:09;;;;;;;12.10;3.07;;;;;;;;;;4746850;30;20127;-73
2022/01/17 05:29:35;;;;;;;11.13;2.80;;;;;;;;;;4742012;30;20273;-73
2022/01/17 05:32:00;;;;;;;11.83;2.50;;;;;;;;;;4738422;30;20048;-76
2022/01/17 05:34:26;;;;;;;5.63;2.83;;;;;;;;;;4749915;30;20044;-76
2022/01/17 05:36:51;;;;;;;9.93;2.30;;;;;;;;;;4738435;30;20082;-76
2022/01/17 05:39:17;;;;;;;13.10;2.90;;;;;;;;;;4744712;30;20051;-76
2022/01/17 05:41:42;;;;;;;15.40;2.73;;;;;;;;;;4739642;30;20105;-76
2022/01/17 05:44:07;;;;;;;15.87;2.87;;;;;;;;;;4741643;30;20070;-74
2022/01/17 05:46:33;;;;;;;6.30;2.37;;;;;;;;;;4739106;30;20167;-74
2022/01/17 05:48:58;;;;;;;15.77;3.67;;;;;;;;;;4746132;30;20444;-74
2022/01/17 05:51:24;;;;;;;20.43;3.30;;;;;;;;;;4741022;30;20426;-74
2022/01/17 05:53:49;;;;;;;11.07;2.13;;;;;;;;;;4744256;30;20126;-74
2022/01/17 05:56:14;;;;;;;13.53;3.23;;;;;;;;;;4735449;30;20410;-74
2022/01/17 05:58:40;;;;;;;13.33;2.77;;;;;;;;;;4741213;30;20036;-74
2022/01/17 06:01:06;;;;;;;13.20;2.83;;;;;;;;;;4745409;30;20048;-76
2022/01/17 06:03:32;;;;;;;13.05;3.13;;;;;;;;;;4749893;30;20056;-77
2022/01/17 06:05:58;;;;;;;16.23;2.53;;;;;;;;;;4739095;30;20083;-77
2022/01/17 06:08:23;;;;;;;12.43;3.47;;;;;;;;;;4735137;30;20491;-78
2022/01/17 06:10:48;;;;;;;12.40;3.27;;;;;;;;;;4737530;30;20914;-77
2022/01/17 06:13:14;;;;;;;14.37;2.77;;;;;;;;;;4742929;30;20066;-74
2022/01/17 06:15:39;;;;;;;7.47;2.17;;;;;;;;;;4740401;30;20076;-74
2022/01/17 06:18:05;;;;;;;11.30;2.40;;;;;;;;;;4744912;30;20047;-74
2022/01/17 06:20:30;;;;;;;11.63;3.07;;;;;;;;;;4741165;30;20037;-74
2022/01/17 06:22:55;;;;;;;15.77;2.87;;;;;;;;;;4742300;30;20414;-74
2022/01/17 06:25:21;;;;;;;10.67;3.17;;;;;;;;;;4742318;30;20119;-74
2022/01/17 06:27:46;;;;;;;11.70;2.57;;;;;;;;;;4736795;30;20395;-74
2022/01/17 06:30:13;;;;;;;15.47;3.27;;;;;;;;;;4741114;30;20429;-74
2022/01/17 06:32:39;;;;;;;12.98;2.53;;;;;;;;;;4735513;30;20123;-74
2022/01/17 06:35:05;;;;;;;11.07;2.35;;;;;;;;;;4720215;30;20402;-73
2022/01/17 06:37:31;;;;;;;16.07;3.10;;;;;;;;;;4742811;30;20051;-74
2022/01/17 06:39:56;;;;;;;12.03;2.87;;;;;;;;;;4749443;30;20482;-73
2022/01/17 06:42:23;;;;;;;13.63;2.37;;;;;;;;;;4746835;30;20040;-74
2022/01/17 06:44:49;;;;;;;15.98;3.33;;;;;;;;;;4747075;30;20145;-74
2022/01/17 06:47:14;;;;;;;10.38;2.53;;;;;;;;;;4742601;30;20048;-74
2022/01/17 06:49:40;;;;;;;17.37;3.67;;;;;;;;;;4734677;30;20403;-73
2022/01/17 06:52:06;;;;;;;9.53;2.67;;;;;;;;;;4742577;30;20106;-74
2022/01/17 06:54:31;;;;;;;13.13;2.33;;;;;;;;;;4749343;30;20044;-74
2022/01/17 06:56:57;;;;;;;7.13;2.50;;;;;;;;;;4751764;30;20065;-74
2022/01/17 06:59:22;;;;;;;21.43;2.43;;;;;;;;;;4747811;30;20482;-74
2022/01/17 07:01:48;;;;;;;9.33;2.17;;;;;;;;;;4747296;30;20052;-74
2022/01/17 07:04:13;;;;;;;11.43;3.77;;;;;;;;;;4747205;30;20434;-74
2022/01/17 07:06:39;;;;;;;20.27;2.87;;;;;;;;;;4736252;30;20083;-73
2022/01/17 07:09:15;;;;;;;12.30;2.55;;;;;;;;;;4744608;30;20110;-74
2022/01/17 07:11:40;;;;;;;13.80;2.10;;;;;;;;;;4741900;30;20044;-74
2022/01/17 07:14:08;;;;;;;9.50;2.70;;;;;;;;;;4738758;30;20050;-74
2022/01/17 07:16:34;;;;;;;12.70;2.33;;;;;;;;;;4744355;30;20277;-74
2022/01/17 07:19:00;;;;;;;11.43;2.55;;;;;;;;;;4739782;30;20047;-74
2022/01/17 07:21:25;;;;;;;12.30;2.33;;;;;;;;;;4737545;30;20119;-74
2022/01/17 07:23:51;;;;;;;14.03;3.07;;;;;;;;;;4748505;30;20036;-73
2022/01/17 07:26:16;;;;;;;8.93;2.23;;;;;;;;;;4739322;30;20032;-74
2022/01/17 07:28:41;;;;;;;8.30;2.20;;;;;;;;;;4746887;30;20402;-74
2022/01/17 07:31:07;;;;;;;16.30;4.63;;;;;;;;;;4739713;30;20037;-76
2022/01/17 07:33:37;;;;;;;9.80;2.37;;;;;;;;;;4749325;30;20474;-76
2022/01/17 07:36:06;;;;;;;14.10;2.17;;;;;;;;;;4746591;30;20044;-76
2022/01/17 07:38:33;;;;;;;9.10;2.55;;;;;;;;;;4748266;30;20398;-77
2022/01/17 07:40:58;;;;;;;21.42;2.88;;;;;;;;;;4744599;30;20178;-76
2022/01/17 07:43:24;;;;;;;9.27;2.67;;;;;;;;;;4735198;30;20500;-73
2022/01/17 07:46:04;;;;;;;11.77;3.07;;;;;;;;;;4744530;30;20025;-73
2022/01/17 07:48:55;;;;;;;17.63;3.30;;;;;;;;;;4744391;30;20171;-73
2022/01/17 07:51:20;;;;;;;13.15;2.67;;;;;;;;;;4743329;30;20044;-73
2022/01/17 07:53:46;;;;;;;11.93;2.63;;;;;;;;;;4745548;30;20044;-73
2022/01/17 07:56:11;;;;;;;18.93;3.17;;;;;;;;;;4742256;30;20048;-73
2022/01/17 07:58:37;;;;;;;7.57;3.00;;;;;;;;;;4739843;30;20020;-73
2022/01/17 08:01:02;;;;;;;9.67;1.67;;;;;;;;;;4741911;30;20541;-73
2022/01/17 08:03:28;;;;;;;10.03;2.13;;;;;;;;;;4743769;30;20059;-73
2022/01/17 08:05:53;;;;;;;9.93;2.27;;;;;;;;;;4744731;30;20041;-73
2022/01/17 08:08:19;;;;;;;9.20;3.50;;;;;;;;;;4744114;30;20053;-73
2022/01/17 08:10:44;;;;;;;10.63;2.53;;;;;;;;;;4743815;30;20166;-73
2022/01/17 08:13:10;;;;;;;14.57;3.80;;;;;;;;;;4742003;30;20042;-73
2022/01/17 08:15:37;;;;;;;6.77;2.70;;;;;;;;;;4733186;30;20535;-74
2022/01/17 08:18:03;;;;;;;9.48;2.28;;;;;;;;;;4739944;30;20043;-73
2022/01/17 08:20:30;;;;;;;19.53;2.93;;;;;;;;;;4734788;30;20032;-73
2022/01/17 08:22:57;;;;;;;10.48;3.08;;;;;;;;;;4743662;30;20098;-73
2022/01/17 08:25:22;;;;;;;11.57;3.15;;;;;;;;;;4746169;30;20040;-74
2022/01/17 08:27:47;;;;;;;12.87;3.03;;;;;;;;;;4748028;30;20398;-73
2022/01/17 08:30:14;;;;;;;17.30;2.60;;;;;;;;;;4747982;30;20040;-74
2022/01/17 08:32:39;;;;;;;10.90;3.50;;;;;;;;;;4746693;30;20039;-73
2022/01/17 08:35:05;;;;;;;14.20;3.10;;;;;;;;;;4748243;30;20135;-73
2022/01/17 08:37:31;;;;;;;7.18;2.35;;;;;;;;;;4746160;30;20055;-73
2022/01/17 08:39:59;;;;;;;13.00;2.67;;;;;;;;;;4748644;30;20040;-73
2022/01/17 08:42:25;;;;;;;14.25;2.60;;;;;;;;;;4744353;30;20055;-73
2022/01/17 08:44:51;;;;;;;9.35;3.25;;;;;;;;;;4745545;30;20486;-73
2022/01/17 08:47:17;;;;;;;14.88;3.40;;;;;;;;;;4745569;30;20583;-73
2022/01/17 08:49:44;;;;;;;17.63;2.78;;;;;;;;;;4750105;30;20043;-73
2022/01/17 08:52:09;;;;;;;12.10;2.85;;;;;;;;;;4748113;30;20044;-73
2022/01/17 08:54:35;;;;;;;13.63;3.80;;;;;;;;;;4740391;30;20047;-76
2022/01/17 08:57:01;;;;;;;15.50;2.80;;;;;;;;;;4744575;30;20037;-76
2022/01/17 08:59:29;;;;;;;15.73;3.40;;;;;;;;;;4736057;30;20048;-76
2022/01/17 09:01:54;;;;;;;11.63;3.47;;;;;;;;;;4744995;30;20063;-76
2022/01/17 09:04:19;;;;;;;10.73;3.40;;;;;;;;;;4750304;30;20039;-76
2022/01/17 09:06:46;;;;;;;28.00;3.90;;;;;;;;;;4751069;30;20051;-76
2022/01/17 09:09:11;;;;;;;24.55;4.10;;;;;;;;;;4741518;30;20036;-76
2022/01/17 09:11:36;;;;;;;21.90;3.87;;;;;;;;;;4744878;30;20501;-77
2022/01/17 09:14:02;;;;;;;13.20;3.53;;;;;;;;;;4751058;30;20504;-76
2022/01/17 09:16:28;;;;;;;16.87;4.10;;;;;;;;;;4750770;30;20032;-77
2022/01/17 09:18:53;;;;;;;19.17;4.20;;;;;;;;;;4751064;30;20464;-77
2022/01/17 09:21:19;;;;;;;11.17;4.03;;;;;;;;;;4744695;30;20075;-77
2022/01/17 09:23:44;;;;;;;23.80;6.13;;;;;;;;;;4750143;30;20119;-77
2022/01/17 09:26:10;;;;;;;10.83;3.90;;;;;;;;;;4752328;30;20040;-77
2022/01/17 09:28:35;;;;;;;20.17;4.13;;;;;;;;;;4733131;30;20442;-77
2022/01/17 09:31:01;;;;;;;20.53;4.53;;;;;;;;;;4748404;30;20044;-77
2022/01/17 09:33:27;;;;;;;15.80;3.90;;;;;;;;;;4744253;30;20040;-77
2022/01/17 09:35:53;;;;;;;15.98;4.03;;;;;;;;;;4741234;30;20049;-77
2022/01/17 09:38:18;;;;;;;12.33;3.60;;;;;;;;;;4739180;30;20437;-77
2022/01/17 09:40:44;;;;;;;13.47;3.70;;;;;;;;;;4747224;30;20041;-77
2022/01/17 09:43:09;;;;;;;16.47;3.97;;;;;;;;;;4737634;30;20049;-77
2022/01/17 09:45:35;;;;;;;17.33;3.93;;;;;;;;;;4737447;30;20483;-77
2022/01/17 09:48:02;;;;;;;17.87;4.07;;;;;;;;;;4735896;30;20399;-77
2022/01/17 09:50:45;;;;;;;;;;;;;;;;;;4750095;30;20196;-74
2022/01/17 09:53:11;;;;;;;12.43;3.15;;;;;;;;;;4743877;30;20056;-74
2022/01/17 09:55:36;;;;;;;16.58;3.60;;;;;;;;;;4735386;30;20086;-74
2022/01/17 09:58:03;;;;;;;19.07;4.53;;;;;;;;;;4749807;30;20128;-74
2022/01/17 10:00:30;;;;;;;;;;;;;;;;;;4735867;30;20040;-74
2022/01/17 10:02:57;;;;;;;16.08;4.03;;;;;;;;;;4735045;30;19934;-74
2022/01/17 10:05:24;;;;;;;11.73;3.55;;;;;;;;;;4750623;30;20036;-74
2022/01/17 10:08:04;;;;;;;23.50;4.38;;;;;;;;;;4747724;30;20040;-74
2022/01/17 10:10:38;;;;;;;19.95;4.22;;;;;;;;;;4739279;30;20131;-74
2022/01/17 10:13:05;;;;;;;14.57;3.85;;;;;;;;;;4745334;30;20042;-74
2022/01/17 10:15:44;;;;;;;15.90;4.07;;;;;;;;;;4731801;30;20040;-73
2022/01/17 10:18:33;;;;;;;11.27;3.00;;;;;;;;;;4732098;30;20047;-76
2022/01/17 10:21:05;;;;;;;11.15;2.78;;;;;;;;;;4737892;30;20052;-76
2022/01/17 10:23:48;;;;;;;21.02;8.13;;;;;;;;;;4738668;30;20387;-76
2022/01/17 10:26:33;;;;;;;17.33;4.43;;;;;;;;;;4743021;30;20516;-76
2022/01/17 10:29:14;;;;;;;12.25;2.90;;;;;;;;;;4742648;30;20060;-76
2022/01/17 10:37:12;;;;;;;13.55;4.03;;;;;;;;;;4744036;30;20477;-76
2022/01/17 10:39:50;;;;;;;;;;;;;;;;;;4743095;30;20058;-75
2022/01/17 10:42:54;;;;;;;21.60;8.35;;;;;;;;;;4740886;30;20334;-75
2022/01/17 10:45:31;;;;;;;22.08;8.40;;;;;;;;;;4730556;30;20457;-76
2022/01/17 10:47:58;;;;;;;13.88;4.38;;;;;;;;;;4732870;30;20506;-76
2022/01/17 10:50:27;;;;;;;;;;;;;;;;;;4740681;30;20044;-76
2022/01/17 10:52:54;;;;;;;27.05;9.07;;;;;;;;;;4738717;30;20301;-76
2022/01/17 10:55:24;;;;;;;33.92;12.30;;;;;;;;;;4732285;30;20040;-76
2022/01/17 10:57:56;;;;;;;22.98;10.63;;;;;;;;;;4733259;30;20040;-75
2022/01/17 11:00:25;;;;;;;26.30;9.85;;;;;;;;;;4743711;30;20052;-77
2022/01/17 11:02:53;;;;;;;39.00;14.23;;;;;;;;;;4741341;30;20058;-77
2022/01/17 11:05:21;;;;;;;42.97;17.60;;;;;;;;;;4738319;30;20118;-77
2022/01/17 11:07:48;;;;;;;45.55;19.08;;;;;;;;;;4740321;30;20032;-77
2022/01/17 11:10:19;;;;;;;35.75;12.50;;;;;;;;;;4742068;30;20048;-77
2022/01/17 11:12:45;;;;;;;24.73;9.93;;;;;;;;;;4742159;30;20047;-77
2022/01/17 11:15:12;;;;;;;22.93;10.33;;;;;;;;;;4733882;30;20041;-77
2022/01/17 11:17:39;;;;;;;31.27;10.88;;;;;;;;;;4740455;30;20071;-77
2022/01/17 11:20:09;;;;;;;23.83;10.18;;;;;;;;;;4731613;30;20044;-77
2022/01/17 11:22:38;;;;;;;18.10;8.68;;;;;;;;;;4746782;30;20040;-78
2022/01/17 11:25:09;;;;;;;20.67;8.20;;;;;;;;;;4733359;30;20462;-78
2022/01/17 11:27:35;;;;;;;22.33;8.52;;;;;;;;;;4741094;30;20048;-77
2022/01/17 11:30:01;;;;;;;21.30;8.13;;;;;;;;;;4730894;30;20082;-77
2022/01/17 11:32:27;;;;;;;19.00;6.90;;;;;;;;;;4734597;30;20052;-77
2022/01/17 11:34:53;;;;;;;25.87;9.60;;;;;;;;;;4731679;30;20281;-78
2022/01/17 11:37:20;;;;;;;20.55;6.20;;;;;;;;;;4730583;30;20884;-77
2022/01/17 11:39:49;;;;;;;;;;;;;;;;;;4745094;30;20044;-76
2022/01/17 11:42:28;;;;;;;27.30;6.85;;;;;;;;;;4744351;30;19962;-77
2022/01/17 11:44:53;;;;;;;16.77;6.00;;;;;;;;;;4731619;30;20068;-78
2022/01/17 11:47:45;;;;;;;20.87;5.50;;;;;;;;;;4743341;30;20047;-77
2022/01/17 11:50:43;;;;;;;22.10;7.53;;;;;;;;;;4739355;30;20453;-78
2022/01/17 11:53:12;;;;;;;15.95;6.55;;;;;;;;;;4730322;30;20048;-77
2022/01/17 11:55:43;;;;;;;20.00;7.55;;;;;;;;;;4738685;30;20048;-77
2022/01/17 11:58:22;;;;;;;20.13;7.50;;;;;;;;;;4740475;30;20056;-76
2022/01/17 12:01:18;;;;;;;24.27;8.25;;;;;;;;;;4728868;30;20040;-77
2022/01/17 12:03:53;;;;;;;23.33;7.53;;;;;;;;;;4731106;30;20056;-77
2022/01/17 12:06:27;;;;;;;26.52;9.25;;;;;;;;;;4735910;30;20407;-78
2022/01/17 12:09:17;;;;;;;25.00;7.60;;;;;;;;;;4731131;30;20048;-77
2022/01/17 12:11:42;;;;;;;16.60;6.97;;;;;;;;;;4742982;30;20080;-78
2022/01/17 12:14:30;;;;;;;13.83;6.63;;;;;;;;;;4741123;30;20071;-77
2022/01/17 12:17:27;;;;;;;19.85;4.75;;;;;;;;;;4721424;30;20048;-78
2022/01/17 12:20:17;;;;;;;18.50;4.55;;;;;;;;;;4738812;30;20056;-77
2022/01/17 12:22:45;;;;;;;16.30;5.78;;;;;;;;;;4724378;30;20135;-78
2022/01/17 12:25:31;;;;;;;18.52;4.32;;;;;;;;;;4731014;30;20044;-77
2022/01/17 12:28:03;;;;;;;22.17;5.28;;;;;;;;;;4740385;30;20078;-77
2022/01/17 12:30:46;;;;;;;18.77;4.45;;;;;;;;;;4735323;30;20048;-77
2022/01/17 12:33:38;;;;;;;17.17;4.10;;;;;;;;;;4743752;30;20044;-78
2022/01/17 12:36:28;;;;;;;15.82;3.92;;;;;;;;;;4727986;30;20473;-77
2022/01/17 12:39:09;;;;;;;19.15;4.65;;;;;;;;;;4737334;30;20114;-78
2022/01/17 12:41:37;;;;;;;15.65;3.92;;;;;;;;;;4741992;30;20044;-78
2022/01/17 12:44:25;;;;;;;11.98;3.97;;;;;;;;;;4744154;30;20095;-78
2022/01/17 12:47:02;;;;;;;21.45;7.35;;;;;;;;;;4728961;30;20052;-78
2022/01/17 12:49:30;;;;;;;15.70;4.10;;;;;;;;;;4741250;30;20052;-78
2022/01/17 12:51:58;;;;;;;10.13;3.35;;;;;;;;;;4729527;30;20064;-78
2022/01/17 12:54:26;;;;;;;13.38;3.28;;;;;;;;;;4741047;30;20501;-77
2022/01/17 12:56:55;;;;;;;13.15;3.42;;;;;;;;;;4729647;30;20083;-78
2022/01/17 12:59:21;;;;;;;11.70;3.10;;;;;;;;;;4729504;30;20065;-77
2022/01/17 13:01:47;;;;;;;21.83;5.18;;;;;;;;;;4737186;30;20056;-78
2022/01/17 13:04:14;;;;;;;19.75;4.28;;;;;;;;;;4736649;30;20391;-77
2022/01/17 13:06:41;;;;;;;19.52;4.90;;;;;;;;;;4747596;30;20056;-78
2022/01/17 13:09:11;;;;;;;13.73;4.25;;;;;;;;;;4737110;30;20066;-77
2022/01/17 13:11:40;;;;;;;19.70;3.47;;;;;;;;;;4746573;30;20452;-78
2022/01/17 13:14:05;;;;;;;13.80;4.18;;;;;;;;;;4743194;30;20089;-78
2022/01/17 13:16:34;;;;;;;15.50;3.43;;;;;;;;;;4747698;30;20131;-78
2022/01/17 13:19:00;;;;;;;10.77;4.18;;;;;;;;;;4745407;30;20061;-78
2022/01/17 13:21:26;;;;;;;18.65;4.25;;;;;;;;;;4739076;30;20483;-77
2022/01/17 13:23:57;;;;;;;12.47;3.73;;;;;;;;;;4738627;30;20100;-77
2022/01/17 13:26:30;;;;;;;11.95;3.55;;;;;;;;;;4733201;30;20048;-78
2022/01/17 13:28:57;;;;;;;13.23;3.92;;;;;;;;;;4732613;30;20048;-78
2022/01/17 13:31:24;;;;;;;12.65;4.13;;;;;;;;;;4735040;30;20063;-78
2022/01/17 13:33:50;;;;;;;10.77;4.05;;;;;;;;;;4738997;30;20053;-78
2022/01/17 13:36:26;;;;;;;7.47;3.20;;;;;;;;;;4733022;30;20044;-78
2022/01/17 13:39:04;;;;;;;9.30;2.88;;;;;;;;;;4741854;30;20074;-78
2022/01/17 13:41:30;;;;;;;9.77;3.17;;;;;;;;;;4745560;30;20055;-77
2022/01/17 13:43:55;;;;;;;18.83;4.30;;;;;;;;;;4749181;30;20040;-78
2022/01/17 13:46:20;;;;;;;20.10;3.50;;;;;;;;;;4742065;30;20143;-78
2022/01/17 13:48:46;;;;;;;10.47;2.63;;;;;;;;;;4736442;30;20037;-78
2022/01/17 13:51:12;;;;;;;19.03;3.27;;;;;;;;;;4744798;30;20401;-78
2022/01/17 13:53:37;;;;;;;11.93;2.80;;;;;;;;;;4734162;30;20040;-78
2022/01/17 13:56:05;;;;;;;13.47;3.10;;;;;;;;;;4749396;30;20046;-78
2022/01/17 13:58:34;;;;;;;11.77;3.47;;;;;;;;;;4737561;30;20172;-78
2022/01/17 14:00:59;;;;;;;16.60;4.45;;;;;;;;;;4730338;30;20083;-78
2022/01/17 14:03:30;;;;;;;18.13;4.37;;;;;;;;;;4732231;30;20088;-78
2022/01/17 14:06:04;;;;;;;12.85;3.38;;;;;;;;;;4734556;30;20047;-78
2022/01/17 14:08:32;;;;;;;12.10;3.17;;;;;;;;;;4740296;30;20110;-77
2022/01/17 14:11:02;;;;;;;8.73;2.90;;;;;;;;;;4746462;30;20102;-78
2022/01/17 14:13:35;;;;;;;15.95;4.13;;;;;;;;;;4732052;30;20059;-77
2022/01/17 14:16:14;;;;;;;12.20;3.30;;;;;;;;;;4732168;30;20048;-78
2022/01/17 14:18:43;;;;;;;15.25;2.80;;;;;;;;;;4737707;30;20048;-78
2022/01/17 14:21:23;;;;;;;15.63;3.03;;;;;;;;;;4739929;30;20491;-77
2022/01/17 14:23:49;;;;;;;10.77;3.53;;;;;;;;;;4733484;30;20068;-77
2022/01/17 14:26:27;;;;;;;14.82;3.10;;;;;;;;;;4732455;30;20497;-78
2022/01/17 14:28:53;;;;;;;15.93;3.15;;;;;;;;;;4742357;30;20418;-77
2022/01/17 14:31:19;;;;;;;9.20;2.80;;;;;;;;;;4741239;30;20044;-78
2022/01/17 14:33:51;;;;;;;9.07;2.47;;;;;;;;;;4730637;30;20517;-78
2022/01/17 14:36:18;;;;;;;10.48;3.00;;;;;;;;;;4745343;30;20780;-78
2022/01/17 14:38:45;;;;;;;5.22;2.60;;;;;;;;;;4735031;30;20552;-77
2022/01/17 14:41:20;;;;;;;11.68;3.55;;;;;;;;;;4738182;30;20036;-78
2022/01/17 14:43:48;;;;;;;11.75;2.83;;;;;;;;;;4736603;30;20061;-78
2022/01/17 14:46:13;;;;;;;13.32;3.13;;;;;;;;;;4734774;30;20474;-78
2022/01/17 14:48:41;;;;;;;15.07;3.83;;;;;;;;;;4736175;30;20046;-78
2022/01/17 14:51:34;;;;;;;16.13;3.38;;;;;;;;;;4738813;30;20083;-78
2022/01/17 14:54:09;;;;;;;12.40;3.22;;;;;;;;;;4727903;30;20048;-78
2022/01/17 15:02:36;;;;;;;11.98;3.00;;;;;;;;;;4741483;30;20067;-77
2022/01/17 15:04:40;;;;;;;12.27;3.85;;;;;;;;;;4739119;30;20403;-78
2022/01/17 15:07:06;;;;;;;12.20;3.20;;;;;;;;;;4746321;30;20506;-78
2022/01/17 15:09:32;;;;;;;19.33;8.77;;;;;;;;;;4736109;30;20079;-78